sensor_id;sensor_type;location;lat;lon;timestamp;temperature;humidity
8114;DHT22;4099;52.684;9.918;2022-10-16T00:01:55;11.80;99.90
8114;DHT22;4099;52.684;9.918;2022-10-16T00:06:57;11.50;99.90
8114;DHT22;4099;52.684;9.918;2022-10-16T00:12:00;11.60;99.90
8114;DHT22;4099;52.684;9.918;2022-10-16T00:17:04;11.60;99.90
8114;DHT22;4099;52.684;9.918;2022-10-16T00:22:06;11.50;99.90
8114;DHT22;4099;52.684;9.918;2022-10-16T00:27:09;11.40;99.90
8114;DHT22;4099;52.684;9.918;2022-10-16T00:32:11;11.30;99.90
8114;DHT22;4099;52.684;9.918;2022-10-16T00:37:13;11.10;99.90
8114;DHT22;4099;52.684;9.918;2022-10-16T00:42:18;11.10;99.90
8114;DHT22;4099;52.684;9.918;2022-10-16T00:47:24;11.40;99.90
8114;DHT22;4099;52.684;9.918;2022-10-16T00:52:28;11.40;99.90
8114;DHT22;4099;52.684;9.918;2022-10-16T00:57:31;11.60;99.90
8114;DHT22;4099;52.684;9.918;2022-10-16T01:02:33;11.80;99.90
8114;DHT22;4099;52.684;9.918;2022-10-16T01:07:43;11.80;99.90
8114;DHT22;4099;52.684;9.918;2022-10-16T01:12:51;11.70;99.90
8114;DHT22;4099;52.684;9.918;2022-10-16T01:17:58;11.70;99.90
8114;DHT22;4099;52.684;9.918;2022-10-16T01:23:07;11.70;99.90
8114;DHT22;4099;52.684;9.918;2022-10-16T01:28:13;11.70;99.90
8114;DHT22;4099;52.684;9.918;2022-10-16T01:33:20;11.70;99.90
8114;DHT22;4099;52.684;9.918;2022-10-16T01:38:26;11.70;99.90
8114;DHT22;4099;52.684;9.918;2022-10-16T01:43:36;11.60;99.90
8114;DHT22;4099;52.684;9.918;2022-10-16T01:48:39;11.50;99.90
8114;DHT22;4099;52.684;9.918;2022-10-16T01:53:46;11.40;99.90
8114;DHT22;4099;52.684;9.918;2022-10-16T01:58:54;11.60;99.90
8114;DHT22;4099;52.684;9.918;2022-10-16T02:04:00;11.70;99.90
8114;DHT22;4099;52.684;9.918;2022-10-16T02:09:03;11.80;99.90
8114;DHT22;4099;52.684;9.918;2022-10-16T02:14:07;11.50;99.90
8114;DHT22;4099;52.684;9.918;2022-10-16T02:19:09;11.20;99.90
8114;DHT22;4099;52.684;9.918;2022-10-16T02:24:19;11.00;99.90
8114;DHT22;4099;52.684;9.918;2022-10-16T02:29:26;10.90;99.90
8114;DHT22;4099;52.684;9.918;2022-10-16T02:34:30;10.90;99.90
8114;DHT22;4099;52.684;9.918;2022-10-16T02:39:33;10.60;99.90
8114;DHT22;4099;52.684;9.918;2022-10-16T02:44:37;10.50;99.90
8114;DHT22;4099;52.684;9.918;2022-10-16T02:49:39;10.40;99.90
8114;DHT22;4099;52.684;9.918;2022-10-16T02:54:41;10.50;99.90
8114;DHT22;4099;52.684;9.918;2022-10-16T02:59:44;10.30;99.90
8114;DHT22;4099;52.684;9.918;2022-10-16T03:04:46;10.10;99.90
8114;DHT22;4099;52.684;9.918;2022-10-16T03:09:48;10.00;99.90
8114;DHT22;4099;52.684;9.918;2022-10-16T03:14:51;9.90;99.90
8114;DHT22;4099;52.684;9.918;2022-10-16T03:19:53;9.80;99.90
8114;DHT22;4099;52.684;9.918;2022-10-16T03:24:55;9.90;99.90
8114;DHT22;4099;52.684;9.918;2022-10-16T03:29:58;9.90;99.90
8114;DHT22;4099;52.684;9.918;2022-10-16T03:35:00;10.10;99.90
8114;DHT22;4099;52.684;9.918;2022-10-16T03:40:03;10.10;99.90
8114;DHT22;4099;52.684;9.918;2022-10-16T03:45:07;10.20;99.90
8114;DHT22;4099;52.684;9.918;2022-10-16T03:50:09;10.10;99.90
8114;DHT22;4099;52.684;9.918;2022-10-16T03:55:11;10.20;99.90
8114;DHT22;4099;52.684;9.918;2022-10-16T04:00:14;10.10;99.90
8114;DHT22;4099;52.684;9.918;2022-10-16T04:05:16;10.10;99.90
8114;DHT22;4099;52.684;9.918;2022-10-16T04:10:18;10.10;99.90
8114;DHT22;4099;52.684;9.918;2022-10-16T04:15:22;10.00;99.90
8114;DHT22;4099;52.684;9.918;2022-10-16T04:20:24;9.90;99.90
8114;DHT22;4099;52.684;9.918;2022-10-16T04:25:26;9.90;99.90
8114;DHT22;4099;52.684;9.918;2022-10-16T04:30:29;9.80;99.90
8114;DHT22;4099;52.684;9.918;2022-10-16T04:35:31;9.70;99.90
8114;DHT22;4099;52.684;9.918;2022-10-16T04:40:33;9.80;99.90
8114;DHT22;4099;52.684;9.918;2022-10-16T04:45:38;9.70;99.90
8114;DHT22;4099;52.684;9.918;2022-10-16T04:50:40;9.50;99.90
8114;DHT22;4099;52.684;9.918;2022-10-16T04:55:43;9.30;99.90
8114;DHT22;4099;52.684;9.918;2022-10-16T05:00:46;9.50;99.90
8114;DHT22;4099;52.684;9.918;2022-10-16T05:05:48;9.60;99.90
8114;DHT22;4099;52.684;9.918;2022-10-16T05:10:50;9.50;99.90
8114;DHT22;4099;52.684;9.918;2022-10-16T05:15:53;9.40;99.90
8114;DHT22;4099;52.684;9.918;2022-10-16T05:20:55;9.50;99.90
8114;DHT22;4099;52.684;9.918;2022-10-16T05:25:59;9.60;99.90
8114;DHT22;4099;52.684;9.918;2022-10-16T05:31:05;9.70;99.90
8114;DHT22;4099;52.684;9.918;2022-10-16T05:36:08;9.80;99.90
8114;DHT22;4099;52.684;9.918;2022-10-16T05:41:10;9.80;99.90
8114;DHT22;4099;52.684;9.918;2022-10-16T05:46:14;9.90;99.90
8114;DHT22;4099;52.684;9.918;2022-10-16T05:51:16;10.10;99.90
8114;DHT22;4099;52.684;9.918;2022-10-16T05:56:18;10.40;99.90
8114;DHT22;4099;52.684;9.918;2022-10-16T06:01:22;10.50;99.90
8114;DHT22;4099;52.684;9.918;2022-10-16T06:06:25;10.40;99.90
8114;DHT22;4099;52.684;9.918;2022-10-16T06:11:29;10.50;99.90
8114;DHT22;4099;52.684;9.918;2022-10-16T06:16:33;10.60;99.90
8114;DHT22;4099;52.684;9.918;2022-10-16T06:21:35;10.90;99.90
8114;DHT22;4099;52.684;9.918;2022-10-16T06:26:37;11.10;99.90
8114;DHT22;4099;52.684;9.918;2022-10-16T06:31:41;11.10;99.90
8114;DHT22;4099;52.684;9.918;2022-10-16T06:36:43;11.10;99.90
8114;DHT22;4099;52.684;9.918;2022-10-16T06:41:44;11.30;99.90
8114;DHT22;4099;52.684;9.918;2022-10-16T06:46:51;11.40;99.90
8114;DHT22;4099;52.684;9.918;2022-10-16T06:51:53;11.70;99.90
8114;DHT22;4099;52.684;9.918;2022-10-16T06:56:54;11.90;99.90
8114;DHT22;4099;52.684;9.918;2022-10-16T07:01:58;12.20;99.90
8114;DHT22;4099;52.684;9.918;2022-10-16T07:07:00;12.50;99.90
8114;DHT22;4099;52.684;9.918;2022-10-16T07:12:02;12.70;99.90
8114;DHT22;4099;52.684;9.918;2022-10-16T07:17:05;13.00;99.90
8114;DHT22;4099;52.684;9.918;2022-10-16T07:22:07;13.20;99.90
8114;DHT22;4099;52.684;9.918;2022-10-16T07:27:09;13.40;99.90
8114;DHT22;4099;52.684;9.918;2022-10-16T07:32:12;13.50;99.90
8114;DHT22;4099;52.684;9.918;2022-10-16T07:37:14;13.70;99.90
8114;DHT22;4099;52.684;9.918;2022-10-16T07:42:16;13.90;99.90
8114;DHT22;4099;52.684;9.918;2022-10-16T07:47:19;14.20;99.90
8114;DHT22;4099;52.684;9.918;2022-10-16T07:52:22;14.50;99.90
8114;DHT22;4099;52.684;9.918;2022-10-16T07:57:24;14.60;99.90
8114;DHT22;4099;52.684;9.918;2022-10-16T08:02:27;14.60;99.90
8114;DHT22;4099;52.684;9.918;2022-10-16T08:07:29;14.60;99.90
8114;DHT22;4099;52.684;9.918;2022-10-16T08:12:31;14.60;99.90
8114;DHT22;4099;52.684;9.918;2022-10-16T08:17:34;14.70;99.90
8114;DHT22;4099;52.684;9.918;2022-10-16T08:22:36;14.60;99.90
8114;DHT22;4099;52.684;9.918;2022-10-16T08:27:38;14.60;99.90
8114;DHT22;4099;52.684;9.918;2022-10-16T08:32:42;14.60;99.90
8114;DHT22;4099;52.684;9.918;2022-10-16T08:37:44;14.70;99.90
8114;DHT22;4099;52.684;9.918;2022-10-16T08:43:12;15.00;99.90
8114;DHT22;4099;52.684;9.918;2022-10-16T08:48:27;15.20;99.90
8114;DHT22;4099;52.684;9.918;2022-10-16T08:53:40;15.40;99.90
8114;DHT22;4099;52.684;9.918;2022-10-16T08:58:45;15.50;99.90
8114;DHT22;4099;52.684;9.918;2022-10-16T09:03:57;15.70;99.90
8114;DHT22;4099;52.684;9.918;2022-10-16T09:14:43;15.90;99.90
8114;DHT22;4099;52.684;9.918;2022-10-16T09:19:53;16.10;99.90
8114;DHT22;4099;52.684;9.918;2022-10-16T09:24:59;16.30;99.90
8114;DHT22;4099;52.684;9.918;2022-10-16T09:30:06;16.60;99.90
8114;DHT22;4099;52.684;9.918;2022-10-16T09:35:15;17.10;99.90
8114;DHT22;4099;52.684;9.918;2022-10-16T09:40:26;17.20;95.50
8114;DHT22;4099;52.684;9.918;2022-10-16T09:45:28;17.10;99.90
8114;DHT22;4099;52.684;9.918;2022-10-16T09:50:32;16.90;98.50
8114;DHT22;4099;52.684;9.918;2022-10-16T09:55:34;16.60;99.90
8114;DHT22;4099;52.684;9.918;2022-10-16T10:00:36;16.50;91.80
8114;DHT22;4099;52.684;9.918;2022-10-16T10:05:48;16.80;93.70
8114;DHT22;4099;52.684;9.918;2022-10-16T10:10:51;16.90;67.20
8114;DHT22;4099;52.684;9.918;2022-10-16T10:15:55;17.10;52.30
8114;DHT22;4099;52.684;9.918;2022-10-16T10:21:00;17.30;1.00
8114;DHT22;4099;52.684;9.918;2022-10-16T10:26:06;17.60;1.00
8114;DHT22;4099;52.684;9.918;2022-10-16T10:31:14;17.60;1.00
8114;DHT22;4099;52.684;9.918;2022-10-16T10:36:29;17.90;1.00
8114;DHT22;4099;52.684;9.918;2022-10-16T10:42:07;18.20;1.00
8114;DHT22;4099;52.684;9.918;2022-10-16T10:47:17;18.00;1.00
8114;DHT22;4099;52.684;9.918;2022-10-16T10:52:50;17.70;1.00
8114;DHT22;4099;52.684;9.918;2022-10-16T10:58:05;17.60;1.00
8114;DHT22;4099;52.684;9.918;2022-10-16T11:03:29;17.50;1.00
8114;DHT22;4099;52.684;9.918;2022-10-16T11:08:37;17.50;1.00
8114;DHT22;4099;52.684;9.918;2022-10-16T11:13:45;17.50;1.00
8114;DHT22;4099;52.684;9.918;2022-10-16T11:18:55;17.60;1.00
8114;DHT22;4099;52.684;9.918;2022-10-16T11:24:04;17.80;1.00
8114;DHT22;4099;52.684;9.918;2022-10-16T11:29:12;17.90;1.00
8114;DHT22;4099;52.684;9.918;2022-10-16T11:34:21;18.10;1.00
8114;DHT22;4099;52.684;9.918;2022-10-16T11:39:27;18.20;1.00
8114;DHT22;4099;52.684;9.918;2022-10-16T11:44:38;18.50;1.00
8114;DHT22;4099;52.684;9.918;2022-10-16T11:49:45;18.60;99.90
8114;DHT22;4099;52.684;9.918;2022-10-16T11:54:54;18.70;1.00
8114;DHT22;4099;52.684;9.918;2022-10-16T12:00:00;18.80;99.90
8114;DHT22;4099;52.684;9.918;2022-10-16T12:05:20;18.90;99.90
8114;DHT22;4099;52.684;9.918;2022-10-16T12:10:28;18.90;1.00
8114;DHT22;4099;52.684;9.918;2022-10-16T12:15:33;19.00;1.00
8114;DHT22;4099;52.684;9.918;2022-10-16T12:20:35;19.10;99.90
8114;DHT22;4099;52.684;9.918;2022-10-16T12:25:40;19.20;99.90
8114;DHT22;4099;52.684;9.918;2022-10-16T12:30:53;19.50;1.00
8114;DHT22;4099;52.684;9.918;2022-10-16T12:35:57;19.40;1.00
8114;DHT22;4099;52.684;9.918;2022-10-16T12:41:02;19.50;1.00
8114;DHT22;4099;52.684;9.918;2022-10-16T12:46:36;19.40;1.00
8114;DHT22;4099;52.684;9.918;2022-10-16T12:51:40;19.40;99.90
8114;DHT22;4099;52.684;9.918;2022-10-16T12:56:53;19.20;99.90
8114;DHT22;4099;52.684;9.918;2022-10-16T13:02:22;18.90;1.00
8114;DHT22;4099;52.684;9.918;2022-10-16T13:07:44;19.10;99.90
8114;DHT22;4099;52.684;9.918;2022-10-16T13:13:06;19.40;1.00
8114;DHT22;4099;52.684;9.918;2022-10-16T13:18:14;19.50;1.00
8114;DHT22;4099;52.684;9.918;2022-10-16T13:23:21;19.10;1.00
8114;DHT22;4099;52.684;9.918;2022-10-16T13:28:32;19.10;99.90
8114;DHT22;4099;52.684;9.918;2022-10-16T13:33:37;19.10;1.00
8114;DHT22;4099;52.684;9.918;2022-10-16T13:38:40;19.20;99.90
8114;DHT22;4099;52.684;9.918;2022-10-16T13:43:45;18.80;1.00
8114;DHT22;4099;52.684;9.918;2022-10-16T13:48:56;18.40;1.00
8114;DHT22;4099;52.684;9.918;2022-10-16T13:53:58;18.10;99.90
8114;DHT22;4099;52.684;9.918;2022-10-16T13:59:03;18.20;99.90
8114;DHT22;4099;52.684;9.918;2022-10-16T14:04:08;18.40;1.00
8114;DHT22;4099;52.684;9.918;2022-10-16T14:09:21;18.60;1.00
8114;DHT22;4099;52.684;9.918;2022-10-16T14:14:27;18.70;1.00
8114;DHT22;4099;52.684;9.918;2022-10-16T14:19:33;18.80;77.40
8114;DHT22;4099;52.684;9.918;2022-10-16T14:24:35;18.50;1.00
8114;DHT22;4099;52.684;9.918;2022-10-16T14:29:39;18.50;1.00
8114;DHT22;4099;52.684;9.918;2022-10-16T14:34:41;18.30;99.90
8114;DHT22;4099;52.684;9.918;2022-10-16T14:39:42;18.30;1.00
8114;DHT22;4099;52.684;9.918;2022-10-16T14:44:52;18.30;1.00
8114;DHT22;4099;52.684;9.918;2022-10-16T14:49:55;18.10;1.00
8114;DHT22;4099;52.684;9.918;2022-10-16T14:54:59;18.10;99.90
8114;DHT22;4099;52.684;9.918;2022-10-16T15:00:04;18.20;1.00
8114;DHT22;4099;52.684;9.918;2022-10-16T15:05:13;18.20;99.90
8114;DHT22;4099;52.684;9.918;2022-10-16T15:10:17;18.10;99.90
8114;DHT22;4099;52.684;9.918;2022-10-16T15:15:33;18.00;1.00
8114;DHT22;4099;52.684;9.918;2022-10-16T15:20:37;17.90;1.00
8114;DHT22;4099;52.684;9.918;2022-10-16T15:25:43;17.90;1.00
8114;DHT22;4099;52.684;9.918;2022-10-16T15:30:49;17.80;1.00
8114;DHT22;4099;52.684;9.918;2022-10-16T15:35:53;17.80;1.00
8114;DHT22;4099;52.684;9.918;2022-10-16T15:40:56;17.70;1.00
8114;DHT22;4099;52.684;9.918;2022-10-16T15:46:02;17.50;1.00
8114;DHT22;4099;52.684;9.918;2022-10-16T15:51:07;17.40;1.00
8114;DHT22;4099;52.684;9.918;2022-10-16T15:56:10;17.10;1.00
8114;DHT22;4099;52.684;9.918;2022-10-16T16:01:15;16.70;1.00
8114;DHT22;4099;52.684;9.918;2022-10-16T16:06:17;16.20;1.00
8114;DHT22;4099;52.684;9.918;2022-10-16T16:11:20;15.90;1.00
8114;DHT22;4099;52.684;9.918;2022-10-16T16:16:26;15.60;2.60
8114;DHT22;4099;52.684;9.918;2022-10-16T16:21:28;15.30;66.80
8114;DHT22;4099;52.684;9.918;2022-10-16T16:26:31;15.10;99.60
8114;DHT22;4099;52.684;9.918;2022-10-16T16:31:38;14.80;99.90
8114;DHT22;4099;52.684;9.918;2022-10-16T16:36:41;14.50;99.90
8114;DHT22;4099;52.684;9.918;2022-10-16T16:41:43;14.20;99.90
8114;DHT22;4099;52.684;9.918;2022-10-16T16:46:47;14.00;99.90
8114;DHT22;4099;52.684;9.918;2022-10-16T16:51:50;14.20;99.90
8114;DHT22;4099;52.684;9.918;2022-10-16T16:56:54;14.10;99.90
8114;DHT22;4099;52.684;9.918;2022-10-16T17:01:58;13.90;99.90
8114;DHT22;4099;52.684;9.918;2022-10-16T17:07:01;13.40;99.90
8114;DHT22;4099;52.684;9.918;2022-10-16T17:12:03;13.20;99.90
8114;DHT22;4099;52.684;9.918;2022-10-16T17:17:07;13.50;99.90
8114;DHT22;4099;52.684;9.918;2022-10-16T17:22:10;13.50;99.90
8114;DHT22;4099;52.684;9.918;2022-10-16T17:27:12;13.10;99.90
8114;DHT22;4099;52.684;9.918;2022-10-16T17:32:16;12.80;99.90
8114;DHT22;4099;52.684;9.918;2022-10-16T17:37:20;12.50;99.90
8114;DHT22;4099;52.684;9.918;2022-10-16T17:42:23;12.50;99.90
8114;DHT22;4099;52.684;9.918;2022-10-16T17:47:27;12.60;99.90
8114;DHT22;4099;52.684;9.918;2022-10-16T17:52:29;12.60;99.90
8114;DHT22;4099;52.684;9.918;2022-10-16T17:57:32;12.50;99.90
8114;DHT22;4099;52.684;9.918;2022-10-16T18:02:36;12.50;99.90
8114;DHT22;4099;52.684;9.918;2022-10-16T18:07:42;12.50;99.90
8114;DHT22;4099;52.684;9.918;2022-10-16T18:12:44;12.60;99.90
8114;DHT22;4099;52.684;9.918;2022-10-16T18:17:49;12.40;99.90
8114;DHT22;4099;52.684;9.918;2022-10-16T18:22:51;12.20;99.90
8114;DHT22;4099;52.684;9.918;2022-10-16T18:27:54;12.20;99.90
8114;DHT22;4099;52.684;9.918;2022-10-16T18:32:57;12.40;99.90
8114;DHT22;4099;52.684;9.918;2022-10-16T18:38:00;12.30;99.90
8114;DHT22;4099;52.684;9.918;2022-10-16T18:43:03;12.60;99.90
8114;DHT22;4099;52.684;9.918;2022-10-16T18:48:06;12.70;99.90
8114;DHT22;4099;52.684;9.918;2022-10-16T18:53:09;12.60;99.90
8114;DHT22;4099;52.684;9.918;2022-10-16T18:58:11;12.30;99.90
8114;DHT22;4099;52.684;9.918;2022-10-16T19:03:15;12.30;99.90
8114;DHT22;4099;52.684;9.918;2022-10-16T19:08:18;12.50;99.90
8114;DHT22;4099;52.684;9.918;2022-10-16T19:13:20;12.60;99.90
8114;DHT22;4099;52.684;9.918;2022-10-16T19:18:25;12.30;99.90
8114;DHT22;4099;52.684;9.918;2022-10-16T19:23:27;12.20;99.90
8114;DHT22;4099;52.684;9.918;2022-10-16T19:28:30;12.00;99.90
8114;DHT22;4099;52.684;9.918;2022-10-16T19:33:37;12.10;99.90
8114;DHT22;4099;52.684;9.918;2022-10-16T19:38:41;11.90;99.90
8114;DHT22;4099;52.684;9.918;2022-10-16T19:43:44;11.80;99.90
8114;DHT22;4099;52.684;9.918;2022-10-16T19:48:51;11.60;99.90
8114;DHT22;4099;52.684;9.918;2022-10-16T19:53:57;11.60;99.90
8114;DHT22;4099;52.684;9.918;2022-10-16T19:59:00;11.60;99.90
8114;DHT22;4099;52.684;9.918;2022-10-16T20:04:04;11.60;99.90
8114;DHT22;4099;52.684;9.918;2022-10-16T20:09:07;11.60;99.90
8114;DHT22;4099;52.684;9.918;2022-10-16T20:14:10;11.70;99.90
8114;DHT22;4099;52.684;9.918;2022-10-16T20:19:14;11.80;99.90
8114;DHT22;4099;52.684;9.918;2022-10-16T20:24:16;11.70;99.90
8114;DHT22;4099;52.684;9.918;2022-10-16T20:29:21;11.70;99.90
8114;DHT22;4099;52.684;9.918;2022-10-16T20:34:25;11.60;99.90
8114;DHT22;4099;52.684;9.918;2022-10-16T20:39:27;11.40;99.90
8114;DHT22;4099;52.684;9.918;2022-10-16T20:44:30;11.20;99.90
8114;DHT22;4099;52.684;9.918;2022-10-16T20:49:34;11.20;99.90
8114;DHT22;4099;52.684;9.918;2022-10-16T20:54:36;11.10;99.90
8114;DHT22;4099;52.684;9.918;2022-10-16T20:59:39;11.20;99.90
8114;DHT22;4099;52.684;9.918;2022-10-16T21:04:46;11.20;99.90
8114;DHT22;4099;52.684;9.918;2022-10-16T21:09:49;11.40;99.90
8114;DHT22;4099;52.684;9.918;2022-10-16T21:14:52;11.30;99.90
8114;DHT22;4099;52.684;9.918;2022-10-16T21:19:57;11.30;99.90
8114;DHT22;4099;52.684;9.918;2022-10-16T21:24:59;11.30;99.90
8114;DHT22;4099;52.684;9.918;2022-10-16T21:30:02;11.20;99.90
8114;DHT22;4099;52.684;9.918;2022-10-16T21:35:07;11.40;99.90
8114;DHT22;4099;52.684;9.918;2022-10-16T21:40:10;11.30;99.90
8114;DHT22;4099;52.684;9.918;2022-10-16T21:45:13;11.20;99.90
8114;DHT22;4099;52.684;9.918;2022-10-16T21:50:17;11.20;99.90
8114;DHT22;4099;52.684;9.918;2022-10-16T21:55:19;11.20;99.90
8114;DHT22;4099;52.684;9.918;2022-10-16T22:00:22;11.30;99.90
8114;DHT22;4099;52.684;9.918;2022-10-16T22:05:26;11.30;99.90
8114;DHT22;4099;52.684;9.918;2022-10-16T22:10:28;11.50;99.90
8114;DHT22;4099;52.684;9.918;2022-10-16T22:15:32;11.60;99.90
8114;DHT22;4099;52.684;9.918;2022-10-16T22:20:36;11.70;99.90
8114;DHT22;4099;52.684;9.918;2022-10-16T22:25:38;11.70;99.90
8114;DHT22;4099;52.684;9.918;2022-10-16T22:30:40;11.80;99.90
8114;DHT22;4099;52.684;9.918;2022-10-16T22:35:44;11.90;99.90
8114;DHT22;4099;52.684;9.918;2022-10-16T22:40:48;11.90;99.90
8114;DHT22;4099;52.684;9.918;2022-10-16T22:45:50;12.00;99.90
8114;DHT22;4099;52.684;9.918;2022-10-16T22:50:54;12.10;99.90
8114;DHT22;4099;52.684;9.918;2022-10-16T22:55:57;12.10;99.90
8114;DHT22;4099;52.684;9.918;2022-10-16T23:00:59;12.10;99.90
8114;DHT22;4099;52.684;9.918;2022-10-16T23:06:03;12.10;99.90
8114;DHT22;4099;52.684;9.918;2022-10-16T23:11:07;12.20;99.90
8114;DHT22;4099;52.684;9.918;2022-10-16T23:16:11;12.30;99.90
8114;DHT22;4099;52.684;9.918;2022-10-16T23:21:17;12.30;99.90
8114;DHT22;4099;52.684;9.918;2022-10-16T23:26:22;12.30;99.90
8114;DHT22;4099;52.684;9.918;2022-10-16T23:31:24;12.40;99.90
8114;DHT22;4099;52.684;9.918;2022-10-16T23:36:28;12.40;99.90
8114;DHT22;4099;52.684;9.918;2022-10-16T23:41:29;12.40;99.90
8114;DHT22;4099;52.684;9.918;2022-10-16T23:46:31;12.30;99.90
8114;DHT22;4099;52.684;9.918;2022-10-16T23:51:35;12.50;99.90
8114;DHT22;4099;52.684;9.918;2022-10-16T23:56:36;12.50;99.90
